createdAt,value
2016-11-28T00:00:56.671Z,957.28
2016-11-28T00:01:56.662Z,957.2
2016-11-28T00:02:56.660Z,957.22
2016-11-28T00:03:56.659Z,957.24
2016-11-28T00:04:56.665Z,957.28
2016-11-28T00:05:56.661Z,957.29
2016-11-28T00:06:56.641Z,957.32
2016-11-28T00:07:56.623Z,957.29
2016-11-28T00:08:56.606Z,957.3
2016-11-28T00:09:56.589Z,957.27
2016-11-28T00:10:56.572Z,957.3
2016-11-28T00:11:56.557Z,957.34
2016-11-28T00:12:56.540Z,957.37
2016-11-28T00:13:56.525Z,957.35
2016-11-28T00:14:56.503Z,957.39
2016-11-28T00:15:56.490Z,957.36
2016-11-28T00:16:56.475Z,957.41
2016-11-28T00:17:56.454Z,957.37
2016-11-28T00:18:56.435Z,957.37
2016-11-28T00:19:56.420Z,957.38
2016-11-28T00:20:56.402Z,957.42
2016-11-28T00:21:56.384Z,957.37
2016-11-28T00:22:56.368Z,957.35
2016-11-28T00:23:56.351Z,957.35
2016-11-28T00:24:56.334Z,957.37
2016-11-28T00:25:56.315Z,957.39
2016-11-28T00:26:56.299Z,957.35
2016-11-28T00:27:56.283Z,957.39
2016-11-28T00:28:56.266Z,957.33
2016-11-28T00:29:56.249Z,957.34
2016-11-28T00:30:56.231Z,957.36
2016-11-28T00:31:56.213Z,957.37
2016-11-28T00:32:56.196Z,957.41
2016-11-28T00:33:56.179Z,957.4
2016-11-28T00:34:56.164Z,957.4
2016-11-28T00:35:56.146Z,957.4
2016-11-28T00:36:56.128Z,957.52
2016-11-28T00:37:56.111Z,957.43
2016-11-28T00:38:56.093Z,957.45
2016-11-28T00:39:56.076Z,957.48
2016-11-28T00:40:56.057Z,957.45
2016-11-28T00:41:56.041Z,957.49
2016-11-28T00:42:56.024Z,957.5
2016-11-28T00:43:56.006Z,957.48
2016-11-28T00:44:55.987Z,957.46
2016-11-28T00:45:55.971Z,957.46
2016-11-28T00:46:55.956Z,957.46
2016-11-28T00:47:55.937Z,957.44
2016-11-28T00:48:55.920Z,957.48
2016-11-28T00:49:55.903Z,957.46
2016-11-28T00:50:55.885Z,957.51
2016-11-28T00:51:55.867Z,957.48
2016-11-28T00:52:55.850Z,957.45
2016-11-28T00:53:55.833Z,957.48
2016-11-28T00:54:55.815Z,957.44
2016-11-28T00:55:55.797Z,957.46
2016-11-28T00:56:55.780Z,957.46
2016-11-28T00:57:55.762Z,957.47
2016-11-28T00:58:55.744Z,957.5
2016-11-28T00:59:55.729Z,957.47
2016-11-28T01:00:55.710Z,957.51
2016-11-28T01:01:55.691Z,957.46
2016-11-28T01:02:55.676Z,957.51
2016-11-28T01:03:55.656Z,957.48
2016-11-28T01:04:55.640Z,957.54
2016-11-28T01:05:55.621Z,957.52
2016-11-28T01:06:55.607Z,957.47
2016-11-28T01:07:55.588Z,957.46
2016-11-28T01:08:55.569Z,957.49
2016-11-28T01:09:55.551Z,957.46
2016-11-28T01:10:55.535Z,957.54
2016-11-28T01:11:55.517Z,957.49
2016-11-28T01:12:55.500Z,957.5
2016-11-28T01:13:55.482Z,957.49
2016-11-28T01:14:55.464Z,957.51
2016-11-28T01:15:55.448Z,957.51
2016-11-28T01:16:55.429Z,957.57
2016-11-28T01:17:55.412Z,957.52
2016-11-28T01:18:55.394Z,957.56
2016-11-28T01:19:55.377Z,957.53
2016-11-28T01:20:55.359Z,957.51
2016-11-28T01:21:55.343Z,957.52
2016-11-28T01:22:55.325Z,957.5
2016-11-28T01:23:55.309Z,957.51
2016-11-28T01:24:55.290Z,957.53
2016-11-28T01:25:55.273Z,957.49
2016-11-28T01:26:55.256Z,957.5
2016-11-28T01:27:55.237Z,957.5
2016-11-28T01:28:55.219Z,957.48
2016-11-28T01:29:55.203Z,957.48
2016-11-28T01:30:55.187Z,957.51
2016-11-28T01:31:55.168Z,957.5
2016-11-28T01:32:55.151Z,957.5
2016-11-28T01:33:55.133Z,957.47
2016-11-28T01:34:55.115Z,957.5
2016-11-28T01:35:55.098Z,957.47
2016-11-28T01:36:55.080Z,957.46
2016-11-28T01:37:55.063Z,957.49
2016-11-28T01:38:55.045Z,957.49
2016-11-28T01:39:55.028Z,957.49
2016-11-28T01:40:55.012Z,957.51
2016-11-28T01:41:54.994Z,957.49
2016-11-28T01:42:54.976Z,957.51
2016-11-28T01:43:54.959Z,957.58
2016-11-28T01:44:54.941Z,957.56
2016-11-28T01:45:54.923Z,957.54
2016-11-28T01:46:54.906Z,957.54
2016-11-28T01:47:54.889Z,957.51
2016-11-28T01:48:54.872Z,957.53
2016-11-28T01:49:54.864Z,957.51
2016-11-28T01:50:54.836Z,957.51
2016-11-28T01:51:54.818Z,957.5
2016-11-28T01:52:54.801Z,957.48
2016-11-28T01:53:54.783Z,957.46
2016-11-28T01:54:54.766Z,957.49
2016-11-28T01:55:54.748Z,957.52
2016-11-28T01:56:54.730Z,957.52
2016-11-28T01:57:54.713Z,957.53
2016-11-28T01:58:54.695Z,957.52
2016-11-28T01:59:54.678Z,957.5
2016-11-28T02:00:54.662Z,957.49
2016-11-28T02:01:54.644Z,957.5
2016-11-28T02:02:54.626Z,957.48
2016-11-28T02:03:54.610Z,957.48
2016-11-28T02:04:54.593Z,957.46
2016-11-28T02:05:54.575Z,957.47
2016-11-28T02:06:54.557Z,957.52
2016-11-28T02:07:54.539Z,957.5
2016-11-28T02:08:54.523Z,957.52
2016-11-28T02:09:54.504Z,957.5
2016-11-28T02:10:54.487Z,957.49
2016-11-28T02:11:54.470Z,957.48
2016-11-28T02:12:54.452Z,957.46
2016-11-28T02:13:54.436Z,957.49
2016-11-28T02:14:54.418Z,957.5
2016-11-28T02:15:54.399Z,957.51
2016-11-28T02:16:54.382Z,957.53
2016-11-28T02:17:54.366Z,957.56
2016-11-28T02:18:54.348Z,957.54
2016-11-28T02:19:54.331Z,957.54
2016-11-28T02:20:54.314Z,957.51
2016-11-28T02:21:54.296Z,957.57
2016-11-28T02:22:54.279Z,957.58
2016-11-28T02:23:54.260Z,957.59
2016-11-28T02:24:54.243Z,957.56
2016-11-28T02:25:54.226Z,957.57
2016-11-28T02:26:54.208Z,957.55
2016-11-28T02:27:54.192Z,957.56
2016-11-28T02:28:54.175Z,957.58
2016-11-28T02:29:54.155Z,957.56
2016-11-28T02:30:54.138Z,957.58
2016-11-28T02:31:54.122Z,957.55
2016-11-28T02:32:54.104Z,957.55
2016-11-28T02:33:54.085Z,957.54
2016-11-28T02:34:54.068Z,957.52
2016-11-28T02:35:54.051Z,957.55
2016-11-28T02:36:54.034Z,957.54
2016-11-28T02:37:54.015Z,957.53
2016-11-28T02:38:53.999Z,957.56
2016-11-28T02:39:53.984Z,957.59
2016-11-28T02:40:53.963Z,957.54
2016-11-28T02:41:53.947Z,957.57
2016-11-28T02:42:53.930Z,957.6
2016-11-28T02:43:53.913Z,957.61
2016-11-28T02:44:53.894Z,957.64
2016-11-28T02:45:53.877Z,957.67
2016-11-28T02:46:53.860Z,957.63
2016-11-28T02:47:53.841Z,957.63
2016-11-28T02:48:53.824Z,957.7
2016-11-28T02:49:53.806Z,957.68
2016-11-28T02:50:53.790Z,957.68
2016-11-28T02:51:53.772Z,957.71
2016-11-28T02:52:53.755Z,957.73
2016-11-28T02:53:53.738Z,957.7
2016-11-28T02:54:53.719Z,957.76
2016-11-28T02:55:53.702Z,957.77
2016-11-28T02:56:53.684Z,957.78
2016-11-28T02:57:53.667Z,957.77
2016-11-28T02:58:53.648Z,957.78
2016-11-28T02:59:53.633Z,957.74
2016-11-28T03:00:53.615Z,957.8
2016-11-28T03:01:53.598Z,957.78
2016-11-28T03:02:53.581Z,957.79
2016-11-28T03:03:53.563Z,957.86
2016-11-28T03:04:53.546Z,957.84
2016-11-28T03:05:53.529Z,957.84
2016-11-28T03:06:53.510Z,957.82
2016-11-28T03:07:53.494Z,957.9
2016-11-28T03:08:53.477Z,957.91
2016-11-28T03:09:53.458Z,957.89
2016-11-28T03:10:53.441Z,957.87
2016-11-28T03:11:53.423Z,957.93
2016-11-28T03:12:53.406Z,957.85
2016-11-28T03:13:53.389Z,957.85
2016-11-28T03:14:53.455Z,957.88
2016-11-28T03:15:53.353Z,957.92
2016-11-28T03:16:53.337Z,957.89
2016-11-28T03:17:53.318Z,957.89
2016-11-28T03:18:53.303Z,957.92
2016-11-28T03:19:53.284Z,957.91
2016-11-28T03:20:53.266Z,957.95
2016-11-28T03:21:53.249Z,957.95
2016-11-28T03:22:53.231Z,957.96
2016-11-28T03:23:53.215Z,957.93
2016-11-28T03:24:53.196Z,957.97
2016-11-28T03:25:53.181Z,957.95
2016-11-28T03:26:53.163Z,957.95
2016-11-28T03:27:53.146Z,957.96
2016-11-28T03:28:53.125Z,958
2016-11-28T03:29:53.109Z,958
2016-11-28T03:30:53.092Z,958.02
2016-11-28T03:31:53.072Z,957.95
2016-11-28T03:32:53.057Z,957.97
2016-11-28T03:33:53.039Z,957.99
2016-11-28T03:34:53.022Z,957.97
2016-11-28T03:35:53.004Z,957.99
2016-11-28T03:36:52.987Z,958.02
2016-11-28T03:37:52.969Z,957.98
2016-11-28T03:38:52.952Z,958
2016-11-28T03:39:52.933Z,958.03
2016-11-28T03:40:52.917Z,958.02
2016-11-28T03:41:52.900Z,958.06
2016-11-28T03:42:52.882Z,958.09
2016-11-28T03:43:52.865Z,958.09
2016-11-28T03:44:52.846Z,958.09
2016-11-28T03:45:52.830Z,958.08
2016-11-28T03:46:52.811Z,958.06
2016-11-28T03:47:52.795Z,958.1
2016-11-28T03:48:52.777Z,958.08
2016-11-28T03:49:52.759Z,958.17
2016-11-28T03:50:52.743Z,958.14
2016-11-28T03:51:52.724Z,958.18
2016-11-28T03:52:52.709Z,958.18
2016-11-28T03:53:52.688Z,958.2
2016-11-28T03:54:52.671Z,958.2
2016-11-28T03:55:52.654Z,958.21
2016-11-28T03:56:52.637Z,958.27
2016-11-28T03:57:52.618Z,958.26
2016-11-28T03:58:52.601Z,958.24
2016-11-28T03:59:52.583Z,958.27
2016-11-28T04:00:52.566Z,958.35
2016-11-28T04:01:52.548Z,958.33
2016-11-28T04:02:52.531Z,958.34
2016-11-28T04:03:52.514Z,958.36
2016-11-28T04:04:52.494Z,958.39
2016-11-28T04:05:52.478Z,958.43
2016-11-28T04:06:52.460Z,958.43
2016-11-28T04:07:52.443Z,958.43
2016-11-28T04:08:52.425Z,958.43
2016-11-28T04:09:52.407Z,958.45
2016-11-28T04:10:52.390Z,958.45
2016-11-28T04:11:52.371Z,958.46
2016-11-28T04:12:52.354Z,958.5
2016-11-28T04:13:52.336Z,958.45
2016-11-28T04:14:52.320Z,958.48
2016-11-28T04:15:52.302Z,958.47
2016-11-28T04:16:52.283Z,958.5
2016-11-28T04:17:52.266Z,958.5
2016-11-28T04:18:52.249Z,958.5
2016-11-28T04:19:52.230Z,958.54
2016-11-28T04:20:52.234Z,958.54
2016-11-28T04:21:52.196Z,958.53
2016-11-28T04:22:52.177Z,958.52
2016-11-28T04:23:52.160Z,958.56
2016-11-28T04:24:52.142Z,958.63
2016-11-28T04:25:52.125Z,958.59
2016-11-28T04:26:52.106Z,958.63
2016-11-28T04:27:52.089Z,958.66
2016-11-28T04:28:52.072Z,958.59
2016-11-28T04:29:52.056Z,958.63
2016-11-28T04:30:52.036Z,958.6
2016-11-28T04:31:52.018Z,958.66
2016-11-28T04:32:52.001Z,958.64
2016-11-28T04:33:51.982Z,958.67
2016-11-28T04:34:51.965Z,958.68
2016-11-28T04:35:51.947Z,958.74
2016-11-28T04:36:51.929Z,958.73
2016-11-28T04:37:51.912Z,958.71
2016-11-28T04:38:51.894Z,958.68
2016-11-28T04:39:51.876Z,958.73
2016-11-28T04:40:51.859Z,958.77
2016-11-28T04:41:51.841Z,958.81
2016-11-28T04:42:51.822Z,958.77
2016-11-28T04:43:51.805Z,958.78
2016-11-28T04:44:51.789Z,958.82
2016-11-28T04:45:51.770Z,958.77
2016-11-28T04:46:51.753Z,958.79
2016-11-28T04:47:51.736Z,958.77
2016-11-28T04:48:51.721Z,958.8
2016-11-28T04:49:51.699Z,958.8
2016-11-28T04:50:51.681Z,958.82
2016-11-28T04:51:51.666Z,958.86
2016-11-28T04:52:51.646Z,958.89
2016-11-28T04:53:51.628Z,958.88
2016-11-28T04:54:51.610Z,958.88
2016-11-28T04:55:51.592Z,958.89
2016-11-28T04:56:51.575Z,958.89
2016-11-28T04:57:51.556Z,958.88
2016-11-28T04:58:51.540Z,958.91
2016-11-28T04:59:51.522Z,958.91
2016-11-28T05:00:51.504Z,958.93
2016-11-28T05:01:51.486Z,958.93
2016-11-28T05:02:51.468Z,958.99
2016-11-28T05:03:51.501Z,958.98
2016-11-28T05:04:51.433Z,959.02
2016-11-28T05:05:51.415Z,959.01
2016-11-28T05:06:51.400Z,959.02
2016-11-28T05:07:51.379Z,959.06
2016-11-28T05:08:51.362Z,959.07
2016-11-28T05:09:51.344Z,959.05
2016-11-28T05:10:51.326Z,959.08
2016-11-28T05:11:51.309Z,959.08
2016-11-28T05:12:51.291Z,959.08
2016-11-28T05:13:51.275Z,959.13
2016-11-28T05:14:51.257Z,959.1
2016-11-28T05:15:51.240Z,959.08
2016-11-28T05:16:51.220Z,959.11
2016-11-28T05:17:51.202Z,959.14
2016-11-28T05:18:51.185Z,959.11
2016-11-28T05:19:51.167Z,959.12
2016-11-28T05:20:51.151Z,959.1
2016-11-28T05:21:51.132Z,959.11
2016-11-28T05:22:51.115Z,959.11
2016-11-28T05:23:51.096Z,959.12
2016-11-28T05:24:51.078Z,959.12
2016-11-28T05:25:51.060Z,959.1
2016-11-28T05:26:51.042Z,959.16
2016-11-28T05:27:51.025Z,959.16
2016-11-28T05:28:51.007Z,959.15
2016-11-28T05:29:50.988Z,959.25
2016-11-28T05:30:50.971Z,959.25
2016-11-28T05:31:50.955Z,959.27
2016-11-28T05:32:50.935Z,959.27
2016-11-28T05:33:50.919Z,959.27
2016-11-28T05:34:50.900Z,959.26
2016-11-28T05:35:50.882Z,959.32
2016-11-28T05:36:50.864Z,959.31
2016-11-28T05:37:50.847Z,959.29
2016-11-28T05:38:50.828Z,959.31
2016-11-28T05:39:50.811Z,959.3
2016-11-28T05:40:50.793Z,959.35
2016-11-28T05:41:50.776Z,959.3
2016-11-28T05:42:50.759Z,959.35
2016-11-28T05:43:50.739Z,959.36
2016-11-28T05:44:50.721Z,959.39
2016-11-28T05:45:50.704Z,959.39
2016-11-28T05:46:50.686Z,959.39
2016-11-28T05:47:50.668Z,959.43
2016-11-28T05:48:50.651Z,959.42
2016-11-28T05:49:50.634Z,959.43
2016-11-28T05:50:50.614Z,959.48
2016-11-28T05:51:50.597Z,959.47
2016-11-28T05:52:50.579Z,959.5
2016-11-28T05:53:50.561Z,959.5
2016-11-28T05:54:50.543Z,959.5
2016-11-28T05:55:50.525Z,959.55
2016-11-28T05:56:50.507Z,959.51
2016-11-28T05:57:50.489Z,959.52
2016-11-28T05:58:50.473Z,959.52
2016-11-28T05:59:50.454Z,959.56
2016-11-28T06:00:50.436Z,959.58
2016-11-28T06:01:50.417Z,959.56
2016-11-28T06:02:50.400Z,959.55
2016-11-28T06:03:50.382Z,959.64
2016-11-28T06:04:50.365Z,959.58
2016-11-28T06:05:50.346Z,959.64
2016-11-28T06:06:50.328Z,959.64
2016-11-28T06:07:50.312Z,959.64
2016-11-28T06:08:50.291Z,959.61
2016-11-28T06:09:50.274Z,959.66
2016-11-28T06:10:50.256Z,959.62
2016-11-28T06:11:50.238Z,959.66
2016-11-28T06:12:50.219Z,959.67
2016-11-28T06:13:50.202Z,959.64
2016-11-28T06:14:50.185Z,959.66
2016-11-28T06:15:50.167Z,959.63
2016-11-28T06:16:50.149Z,959.69
2016-11-28T06:17:50.131Z,959.72
2016-11-28T06:18:50.113Z,959.76
2016-11-28T06:19:50.094Z,959.77
2016-11-28T06:20:50.077Z,959.74
2016-11-28T06:21:50.059Z,959.78
2016-11-28T06:22:50.041Z,959.82
2016-11-28T06:23:50.023Z,959.79
2016-11-28T06:24:50.004Z,959.86
2016-11-28T06:25:49.987Z,959.81
2016-11-28T06:26:49.969Z,959.88
2016-11-28T06:27:49.950Z,959.9
2016-11-28T06:28:49.932Z,959.9
2016-11-28T06:29:49.915Z,959.91
2016-11-28T06:30:49.896Z,959.93
2016-11-28T06:31:49.879Z,959.96
2016-11-28T06:32:49.860Z,959.96
2016-11-28T06:33:49.843Z,960.01
2016-11-28T06:34:49.824Z,960.01
2016-11-28T06:35:49.805Z,960.02
2016-11-28T06:36:49.787Z,959.99
2016-11-28T06:37:49.771Z,960.05
2016-11-28T06:38:49.752Z,960.06
2016-11-28T06:39:49.734Z,960.1
2016-11-28T06:40:49.716Z,960.1
2016-11-28T06:41:49.697Z,960.09
2016-11-28T06:42:49.680Z,960.16
2016-11-28T06:43:49.662Z,960.1
2016-11-28T06:44:49.644Z,960.21
2016-11-28T06:45:49.625Z,960.1
2016-11-28T06:46:49.607Z,960.17
2016-11-28T06:47:49.590Z,960.17
2016-11-28T06:48:49.571Z,960.19
2016-11-28T06:49:49.554Z,960.2
2016-11-28T06:50:49.536Z,960.18
2016-11-28T06:51:49.519Z,960.15
2016-11-28T06:52:49.500Z,960.2
2016-11-28T06:53:49.482Z,960.28
2016-11-28T06:54:49.464Z,960.23
2016-11-28T06:55:49.446Z,960.22
2016-11-28T06:56:49.427Z,960.26
2016-11-28T06:57:49.410Z,960.21
2016-11-28T06:58:49.391Z,960.23
2016-11-28T06:59:49.373Z,960.24
2016-11-28T07:00:49.355Z,960.26
2016-11-28T07:01:49.337Z,960.32
2016-11-28T07:02:49.320Z,960.31
2016-11-28T07:03:49.300Z,960.36
2016-11-28T07:04:49.285Z,960.39
2016-11-28T07:05:49.265Z,960.38
2016-11-28T07:06:49.247Z,960.38
2016-11-28T07:07:49.228Z,960.43
2016-11-28T07:08:49.211Z,960.41
2016-11-28T07:09:49.193Z,960.4
2016-11-28T07:10:49.174Z,960.41
2016-11-28T07:11:49.156Z,960.43
2016-11-28T07:12:49.138Z,960.46
2016-11-28T07:13:49.121Z,960.43
2016-11-28T07:14:49.100Z,960.49
2016-11-28T07:15:49.084Z,960.54
2016-11-28T07:16:49.066Z,960.5
2016-11-28T07:17:49.048Z,960.56
2016-11-28T07:18:49.030Z,960.58
2016-11-28T07:19:49.011Z,960.58
2016-11-28T07:20:48.993Z,960.57
2016-11-28T07:21:48.974Z,960.61
2016-11-28T07:22:48.956Z,960.62
2016-11-28T07:23:48.939Z,960.59
2016-11-28T07:24:48.921Z,960.61
2016-11-28T07:25:48.902Z,960.64
2016-11-28T07:26:48.883Z,960.66
2016-11-28T07:27:48.866Z,960.68
2016-11-28T07:28:48.848Z,960.72
2016-11-28T07:29:48.828Z,960.71
2016-11-28T07:30:48.812Z,960.72
2016-11-28T07:31:48.794Z,960.74
2016-11-28T07:32:48.775Z,960.73
2016-11-28T07:33:48.757Z,960.78
2016-11-28T07:34:48.790Z,960.76
2016-11-28T07:35:48.721Z,960.77
2016-11-28T07:36:48.702Z,960.78
2016-11-28T07:37:48.685Z,960.78
2016-11-28T07:38:48.666Z,960.8
2016-11-28T07:39:48.648Z,960.8
2016-11-28T07:40:48.630Z,960.83
2016-11-28T07:41:48.612Z,960.85
2016-11-28T07:42:48.603Z,960.86
2016-11-28T07:43:48.575Z,960.89
2016-11-28T07:44:48.558Z,960.92
2016-11-28T07:45:48.539Z,960.99
2016-11-28T07:46:48.522Z,961.01
2016-11-28T07:47:48.504Z,961.02
2016-11-28T07:48:48.485Z,961.03
2016-11-28T07:49:48.467Z,961.01
2016-11-28T07:50:48.450Z,961.05
2016-11-28T07:51:48.430Z,961.08
2016-11-28T07:52:48.413Z,961.1
2016-11-28T07:53:48.395Z,961.1
2016-11-28T07:54:48.376Z,961.17
2016-11-28T07:55:48.360Z,961.1
2016-11-28T07:56:48.341Z,961.16
2016-11-28T07:57:48.323Z,961.14
2016-11-28T07:58:48.304Z,961.18
2016-11-28T07:59:48.286Z,961.21
2016-11-28T08:00:48.267Z,961.26
2016-11-28T08:01:48.250Z,961.24
2016-11-28T08:02:48.232Z,961.19
2016-11-28T08:03:48.213Z,961.26
2016-11-28T08:04:48.196Z,961.27
2016-11-28T08:05:48.177Z,961.22
2016-11-28T08:06:48.160Z,961.26
2016-11-28T08:07:48.142Z,961.22
2016-11-28T08:08:48.124Z,961.25
2016-11-28T08:09:48.105Z,961.21
2016-11-28T08:10:48.087Z,961.26
2016-11-28T08:11:48.070Z,961.24
2016-11-28T08:12:48.056Z,961.25
2016-11-28T08:13:48.033Z,961.24
2016-11-28T08:14:48.015Z,961.19
2016-11-28T08:15:47.998Z,961.22
2016-11-28T08:16:47.979Z,961.25
2016-11-28T08:17:47.961Z,961.21
2016-11-28T08:18:47.944Z,961.24
2016-11-28T08:19:47.926Z,961.25
2016-11-28T08:20:47.908Z,961.28
2016-11-28T08:21:47.891Z,961.29
2016-11-28T08:22:47.872Z,961.24
2016-11-28T08:23:47.855Z,961.29
2016-11-28T08:24:47.837Z,961.29
2016-11-28T08:25:47.819Z,961.31
2016-11-28T08:26:47.801Z,961.28
2016-11-28T08:27:47.783Z,961.33
2016-11-28T08:28:47.764Z,961.33
2016-11-28T08:29:47.747Z,961.35
2016-11-28T08:30:47.748Z,961.35
2016-11-28T08:31:47.711Z,961.37
2016-11-28T08:32:47.693Z,961.46
2016-11-28T08:33:47.676Z,961.44
2016-11-28T08:34:47.656Z,961.52
2016-11-28T08:35:47.639Z,961.54
2016-11-28T08:36:47.624Z,961.59
2016-11-28T08:37:47.603Z,961.61
2016-11-28T08:38:47.585Z,961.53
2016-11-28T08:39:47.568Z,961.63
2016-11-28T08:40:47.550Z,961.62
2016-11-28T08:41:47.531Z,961.59
2016-11-28T08:42:47.513Z,961.65
2016-11-28T08:43:47.495Z,961.65
2016-11-28T08:44:47.478Z,961.61
2016-11-28T08:45:47.459Z,961.69
2016-11-28T08:46:47.442Z,961.75
2016-11-28T08:47:47.424Z,961.72
2016-11-28T08:48:47.407Z,961.72
2016-11-28T08:49:47.387Z,961.78
2016-11-28T08:50:47.370Z,961.76
2016-11-28T08:51:47.353Z,961.76
2016-11-28T08:52:47.335Z,961.8
2016-11-28T08:53:47.316Z,961.82
2016-11-28T08:54:47.300Z,961.87
2016-11-28T08:55:47.281Z,961.84
2016-11-28T08:56:47.263Z,961.84
2016-11-28T08:57:47.245Z,961.83
2016-11-28T08:58:47.227Z,961.83
2016-11-28T08:59:47.211Z,961.91
2016-11-28T09:00:47.190Z,961.93
2016-11-28T09:01:47.172Z,961.91
2016-11-28T09:02:47.155Z,961.94
2016-11-28T09:03:47.138Z,961.96
2016-11-28T09:04:47.118Z,961.96
2016-11-28T09:05:47.101Z,962.03
2016-11-28T09:06:47.084Z,962
2016-11-28T09:07:47.064Z,961.98
2016-11-28T09:08:47.048Z,961.97
2016-11-28T09:09:47.030Z,962.01
2016-11-28T09:10:47.012Z,962.04
2016-11-28T09:11:46.992Z,962.08
2016-11-28T09:12:46.975Z,962.12
2016-11-28T09:13:46.958Z,962.09
2016-11-28T09:14:46.941Z,962.09
2016-11-28T09:15:46.922Z,962.15
2016-11-28T09:16:46.904Z,962.2
2016-11-28T09:17:46.886Z,962.19
2016-11-28T09:18:46.868Z,962.21
2016-11-28T09:19:46.849Z,962.2
2016-11-28T09:20:46.832Z,962.24
2016-11-28T09:21:46.815Z,962.25
2016-11-28T09:22:46.795Z,962.26
2016-11-28T09:23:46.779Z,962.31
2016-11-28T09:24:46.761Z,962.32
2016-11-28T09:25:46.743Z,962.3
2016-11-28T09:26:46.724Z,962.31
2016-11-28T09:27:46.707Z,962.29
2016-11-28T09:28:46.688Z,962.34
2016-11-28T09:29:46.670Z,962.35
2016-11-28T09:30:46.652Z,962.37
2016-11-28T09:31:46.635Z,962.38
2016-11-28T09:32:46.617Z,962.34
2016-11-28T09:33:46.599Z,962.37
2016-11-28T09:34:46.582Z,962.39
2016-11-28T09:35:46.563Z,962.37
2016-11-28T09:36:46.546Z,962.35
2016-11-28T09:37:46.526Z,962.4
2016-11-28T09:38:46.509Z,962.42
2016-11-28T09:39:46.491Z,962.39
2016-11-28T09:40:46.472Z,962.43
2016-11-28T09:41:46.454Z,962.46
2016-11-28T09:42:46.438Z,962.44
2016-11-28T09:43:46.420Z,962.46
2016-11-28T09:44:46.400Z,962.47
2016-11-28T09:45:46.384Z,962.44
2016-11-28T09:46:46.366Z,962.5
2016-11-28T09:47:46.349Z,962.58
2016-11-28T09:48:46.329Z,962.53
2016-11-28T09:49:46.312Z,962.48
2016-11-28T09:50:46.296Z,962.51
2016-11-28T09:51:46.277Z,962.51
2016-11-28T09:52:46.259Z,962.56
2016-11-28T09:53:46.241Z,962.54
2016-11-28T09:54:46.224Z,962.56
2016-11-28T09:55:46.205Z,962.54
2016-11-28T09:56:46.187Z,962.59
2016-11-28T09:57:46.170Z,962.58
2016-11-28T09:58:46.156Z,962.59
2016-11-28T09:59:46.135Z,962.59
2016-11-28T10:00:46.117Z,962.68
2016-11-28T10:01:46.099Z,962.64
2016-11-28T10:02:46.081Z,962.65
2016-11-28T10:03:46.063Z,962.65
2016-11-28T10:04:46.045Z,962.63
2016-11-28T10:05:46.028Z,962.6
2016-11-28T10:06:46.010Z,962.6
2016-11-28T10:07:45.992Z,962.61
2016-11-28T10:08:45.975Z,962.65
2016-11-28T10:09:45.956Z,962.61
2016-11-28T10:10:45.937Z,962.59
2016-11-28T10:11:45.920Z,962.55
2016-11-28T10:12:45.903Z,962.56
2016-11-28T10:13:45.885Z,962.53
2016-11-28T10:14:45.867Z,962.56
2016-11-28T10:15:45.848Z,962.58
2016-11-28T10:16:45.833Z,962.58
2016-11-28T10:17:45.814Z,962.58
2016-11-28T10:18:45.795Z,962.57
2016-11-28T10:19:45.777Z,962.6
2016-11-28T10:20:45.761Z,962.62
2016-11-28T10:21:45.742Z,962.64
2016-11-28T10:22:45.723Z,962.56
2016-11-28T10:23:45.718Z,962.56
2016-11-28T10:24:45.701Z,962.54
2016-11-28T10:25:45.670Z,962.58
2016-11-28T10:26:45.657Z,962.6
2016-11-28T10:27:45.635Z,962.62
2016-11-28T10:28:45.616Z,962.64
2016-11-28T10:29:45.598Z,962.68
2016-11-28T10:30:45.579Z,962.64
2016-11-28T10:31:45.562Z,962.74
2016-11-28T10:32:45.546Z,962.73
2016-11-28T10:33:45.526Z,962.69
2016-11-28T10:34:45.508Z,962.7
2016-11-28T10:35:45.490Z,962.73
2016-11-28T10:36:45.473Z,962.77
2016-11-28T10:37:45.455Z,962.74
2016-11-28T10:38:45.438Z,962.75
2016-11-28T10:39:45.418Z,962.78
2016-11-28T10:40:45.404Z,962.74
2016-11-28T10:41:45.384Z,962.77
2016-11-28T10:42:45.366Z,962.78
2016-11-28T10:43:45.348Z,962.79
2016-11-28T10:44:45.331Z,962.79
2016-11-28T10:45:45.312Z,962.83
2016-11-28T10:46:45.295Z,962.84
2016-11-28T10:47:45.277Z,962.78
2016-11-28T10:48:45.258Z,962.8
2016-11-28T10:49:45.242Z,962.76
2016-11-28T10:50:45.224Z,962.82
2016-11-28T10:51:45.206Z,962.87
2016-11-28T10:52:45.188Z,962.83
2016-11-28T10:53:45.170Z,962.83
2016-11-28T10:54:45.152Z,962.9
2016-11-28T10:55:45.135Z,962.9
2016-11-28T10:56:45.118Z,962.87
2016-11-28T10:57:45.098Z,962.88
2016-11-28T10:58:45.081Z,962.91
2016-11-28T10:59:45.064Z,962.96
2016-11-28T11:00:45.046Z,962.95
2016-11-28T11:01:45.028Z,962.92
2016-11-28T11:02:45.010Z,962.92
2016-11-28T11:03:44.992Z,962.92
2016-11-28T11:04:44.974Z,962.97
2016-11-28T11:05:44.957Z,962.98
2016-11-28T11:06:44.938Z,962.95
2016-11-28T11:07:44.922Z,963.03
2016-11-28T11:08:44.903Z,963.05
2016-11-28T11:09:44.888Z,962.99
2016-11-28T11:10:44.868Z,963.01
2016-11-28T11:11:44.851Z,963.03
2016-11-28T11:12:44.833Z,963.02
2016-11-28T11:13:44.816Z,963.05
2016-11-28T11:14:44.799Z,963.09
2016-11-28T11:15:44.779Z,963.04
2016-11-28T11:16:44.761Z,963.07
2016-11-28T11:17:44.746Z,963.08
2016-11-28T11:18:44.728Z,963.06
2016-11-28T11:19:44.710Z,963.1
2016-11-28T11:20:44.693Z,963.14
2016-11-28T11:21:44.674Z,963.11
2016-11-28T11:22:44.657Z,963.1
2016-11-28T11:23:44.640Z,963.14
2016-11-28T11:24:44.622Z,963.16
2016-11-28T11:25:44.605Z,963.13
2016-11-28T11:26:44.587Z,963.19
2016-11-28T11:27:44.569Z,963.17
2016-11-28T11:28:44.552Z,963.18
2016-11-28T11:29:44.534Z,963.17
2016-11-28T11:30:44.517Z,963.19
2016-11-28T11:31:44.499Z,963.23
2016-11-28T11:32:44.481Z,963.19
2016-11-28T11:33:44.465Z,963.2
2016-11-28T11:34:44.448Z,963.18
2016-11-28T11:35:44.487Z,963.23
2016-11-28T11:36:44.414Z,963.25
2016-11-28T11:37:44.395Z,963.25
2016-11-28T11:38:44.378Z,963.27
2016-11-28T11:39:44.362Z,963.3
2016-11-28T11:40:44.348Z,963.29
2016-11-28T11:41:44.326Z,963.32
2016-11-28T11:42:44.310Z,963.33
2016-11-28T11:43:44.292Z,963.31
2016-11-28T11:44:44.274Z,963.36
2016-11-28T11:45:44.258Z,963.31
2016-11-28T11:46:44.240Z,963.38
2016-11-28T11:47:44.223Z,963.36
2016-11-28T11:48:44.205Z,963.37
2016-11-28T11:49:44.188Z,963.42
2016-11-28T11:50:44.171Z,963.5
2016-11-28T11:51:44.156Z,963.49
2016-11-28T11:52:44.136Z,963.47
2016-11-28T11:53:44.120Z,963.51
2016-11-28T11:54:44.102Z,963.5
2016-11-28T11:55:44.083Z,963.57
2016-11-28T11:56:44.067Z,963.56
2016-11-28T11:57:44.049Z,963.58
2016-11-28T11:58:44.032Z,963.58
2016-11-28T11:59:44.015Z,963.55
2016-11-28T12:00:43.997Z,963.56
2016-11-28T12:01:43.980Z,963.6
2016-11-28T12:02:43.962Z,963.61
2016-11-28T12:03:43.945Z,963.57
2016-11-28T12:04:43.928Z,963.62
2016-11-28T12:05:43.911Z,963.61
2016-11-28T12:06:43.893Z,963.65
2016-11-28T12:07:43.876Z,963.66
2016-11-28T12:08:43.859Z,963.68
2016-11-28T12:09:43.842Z,963.67
2016-11-28T12:10:43.825Z,963.71
2016-11-28T12:11:43.807Z,963.71
2016-11-28T12:12:43.790Z,963.68
2016-11-28T12:13:43.772Z,963.71
2016-11-28T12:14:43.755Z,963.72
2016-11-28T12:15:43.738Z,963.7
2016-11-28T12:16:43.721Z,963.73
2016-11-28T12:17:43.703Z,963.68
2016-11-28T12:18:43.685Z,963.72
2016-11-28T12:19:43.669Z,963.77
2016-11-28T12:20:43.653Z,963.7
2016-11-28T12:21:43.634Z,963.76
2016-11-28T12:22:43.617Z,963.77
2016-11-28T12:23:43.601Z,963.71
2016-11-28T12:24:43.584Z,963.75
2016-11-28T12:25:43.566Z,963.74
2016-11-28T12:26:43.549Z,963.71
2016-11-28T12:27:43.531Z,963.7
2016-11-28T12:28:43.515Z,963.74
2016-11-28T12:29:43.496Z,963.72
2016-11-28T12:30:43.481Z,963.65
2016-11-28T12:31:43.463Z,963.66